Time;durP1;ratioP1;P1;durP2;ratioP2;P2;SDS_P1;SDS_P2;PMS_P1;PMS_P2;Temp;Humidity;BMP_temperature;BMP_pressure;BME280_temperature;BME280_humidity;BME280_pressure;Samples;Min_cycle;Max_cycle;Signal;HPM_P1;HPM_P2
2022/08/21 00:01:45;;;;;;;7.90;3.00;;;17.90;1.00;;;;;;5092217;28;20638;-71
2022/08/21 00:04:11;;;;;;;8.90;3.03;;;17.80;1.00;;;;;;5092528;28;20207;-71
2022/08/21 00:06:37;;;;;;;5.47;2.60;;;17.90;1.00;;;;;;5093804;28;20175;-71
2022/08/21 00:09:05;;;;;;;5.07;3.20;;;17.80;1.00;;;;;;5093643;28;20288;-71
2022/08/21 00:11:32;;;;;;;5.50;2.87;;;17.80;1.00;;;;;;5093565;28;20203;-71
2022/08/21 00:13:59;;;;;;;12.90;3.20;;;17.70;1.00;;;;;;5093850;28;20615;-71
2022/08/21 00:16:25;;;;;;;7.67;3.30;;;17.70;1.00;;;;;;5093181;28;20207;-70
2022/08/21 00:18:50;;;;;;;5.00;3.00;;;17.60;1.00;;;;;;5092429;28;20179;-71
2022/08/21 00:21:16;;;;;;;5.73;2.90;;;17.60;1.00;;;;;;5093523;28;20538;-71
2022/08/21 00:23:42;;;;;;;7.17;2.87;;;17.60;1.00;;;;;;5093605;28;20188;-71
2022/08/21 00:26:08;;;;;;;4.33;2.60;;;17.50;1.00;;;;;;5093698;28;20193;-72
2022/08/21 00:28:33;;;;;;;8.20;2.97;;;17.60;1.00;;;;;;5093257;28;20534;-71
2022/08/21 00:31:00;;;;;;;10.63;3.23;;;17.50;1.00;;;;;;5092934;28;20246;-72
2022/08/21 00:33:26;;;;;;;7.23;2.80;;;17.50;1.00;;;;;;5092203;28;20182;-72
2022/08/21 00:35:52;;;;;;;10.07;3.10;;;17.50;1.00;;;;;;5093517;28;20176;-72
2022/08/21 00:38:18;;;;;;;12.20;2.80;;;17.40;1.00;;;;;;5092156;28;20288;-72
2022/08/21 00:40:48;;;;;;;7.07;2.90;;;17.30;1.00;;;;;;5093443;28;20167;-71
2022/08/21 00:43:17;;;;;;;6.27;2.90;;;17.30;1.00;;;;;;5093110;28;20262;-71
2022/08/21 00:45:43;;;;;;;7.43;3.10;;;17.20;1.00;;;;;;5092220;28;20564;-70
2022/08/21 00:48:09;;;;;;;8.17;2.60;;;17.20;1.00;;;;;;5093348;28;20176;-71
2022/08/21 00:50:41;;;;;;;6.70;3.07;;;17.20;1.00;;;;;;5093280;28;20662;-71
2022/08/21 00:53:09;;;;;;;4.53;2.87;;;17.20;1.00;;;;;;5093271;28;20164;-71
2022/08/21 00:55:36;;;;;;;9.23;3.30;;;17.30;1.00;;;;;;5093348;28;20172;-71
2022/08/21 00:58:03;;;;;;;6.27;3.10;;;17.30;1.00;;;;;;5093256;28;20255;-71
2022/08/21 01:00:33;;;;;;;6.37;3.27;;;17.20;1.00;;;;;;5092681;28;20206;-71
2022/08/21 01:03:00;;;;;;;6.73;3.17;;;17.20;1.00;;;;;;5093425;28;20176;-72
2022/08/21 01:05:27;;;;;;;6.90;3.30;;;17.10;1.00;;;;;;5091839;28;20203;-72
2022/08/21 01:07:56;;;;;;;6.83;2.90;;;17.10;1.00;;;;;;5091665;28;20227;-71
2022/08/21 01:10:22;;;;;;;6.93;3.00;;;17.10;1.00;;;;;;5092826;28;20713;-71
2022/08/21 01:12:50;;;;;;;11.00;2.70;;;17.00;1.00;;;;;;5092815;28;20662;-71
2022/08/21 01:15:18;;;;;;;6.47;2.87;;;16.90;1.00;;;;;;5093118;28;20174;-72
2022/08/21 01:17:43;;;;;;;5.77;2.77;;;17.00;2.80;;;;;;5092982;28;20160;-71
2022/08/21 01:20:11;;;;;;;6.77;2.80;;;16.90;1.50;;;;;;5093249;28;20237;-71
2022/08/21 01:22:38;;;;;;;6.17;2.80;;;16.90;1.00;;;;;;5092689;28;20203;-71
2022/08/21 01:25:06;;;;;;;5.93;2.73;;;16.90;3.10;;;;;;5093040;28;20175;-71
2022/08/21 01:27:32;;;;;;;9.03;2.77;;;16.80;4.80;;;;;;5092634;28;20179;-72
2022/08/21 01:30:04;;;;;;;8.13;2.97;;;16.80;4.90;;;;;;5092908;28;20168;-72
2022/08/21 01:32:30;;;;;;;6.13;2.67;;;16.70;8.00;;;;;;5092924;28;20196;-71
2022/08/21 01:34:56;;;;;;;8.37;2.83;;;16.60;11.40;;;;;;5093034;28;20293;-71
2022/08/21 01:37:22;;;;;;;5.97;2.93;;;16.60;12.80;;;;;;5092801;28;20250;-70
2022/08/21 01:39:48;;;;;;;5.13;2.57;;;16.60;10.60;;;;;;5092901;28;20225;-71
2022/08/21 01:42:14;;;;;;;7.00;2.93;;;16.70;11.20;;;;;;5092498;28;20164;-71
2022/08/21 01:44:40;;;;;;;5.43;2.90;;;16.70;11.50;;;;;;5092803;28;20178;-71
2022/08/21 01:47:09;;;;;;;9.60;2.80;;;16.70;11.00;;;;;;5092712;28;20168;-71
2022/08/21 01:49:35;;;;;;;4.83;2.70;;;16.60;13.80;;;;;;5093018;28;20225;-71
2022/08/21 01:52:02;;;;;;;9.27;3.20;;;16.60;13.40;;;;;;5091348;28;20211;-71
2022/08/21 01:54:29;;;;;;;5.93;2.60;;;16.70;12.90;;;;;;5091446;28;20180;-71
2022/08/21 01:56:56;;;;;;;6.67;2.67;;;16.70;11.00;;;;;;5093647;28;20160;-71
2022/08/21 01:59:23;;;;;;;7.20;2.93;;;16.60;10.20;;;;;;5094991;28;20263;-71
2022/08/21 02:01:49;;;;;;;6.23;3.03;;;16.60;9.80;;;;;;5096279;28;20168;-71
2022/08/21 02:04:16;;;;;;;7.27;2.80;;;16.60;11.90;;;;;;5096290;28;20196;-70
2022/08/21 02:06:42;;;;;;;8.67;2.83;;;16.50;15.70;;;;;;5096170;28;20168;-71
2022/08/21 02:09:10;;;;;;;7.10;2.80;;;16.50;15.70;;;;;;5096166;28;20224;-71
2022/08/21 02:11:40;;;;;;;6.73;2.63;;;16.50;16.20;;;;;;5095799;28;20696;-71
2022/08/21 02:14:11;;;;;;;5.70;2.93;;;16.40;16.50;;;;;;5094806;28;20259;-70
2022/08/21 02:16:37;;;;;;;8.30;2.77;;;16.30;19.20;;;;;;5094698;28;20203;-70
2022/08/21 02:19:02;;;;;;;6.60;2.27;;;16.30;19.90;;;;;;5095882;28;20164;-71
2022/08/21 02:21:28;;;;;;;4.17;2.63;;;16.30;22.20;;;;;;5095884;28;20172;-70
2022/08/21 02:23:53;;;;;;;8.63;2.93;;;16.30;23.50;;;;;;5095889;28;20527;-71
2022/08/21 02:26:19;;;;;;;9.03;2.67;;;16.20;26.90;;;;;;5095493;28;20172;-71
2022/08/21 02:28:45;;;;;;;8.37;3.10;;;16.20;26.90;;;;;;5095517;28;20635;-71
2022/08/21 02:31:10;;;;;;;7.07;2.87;;;16.20;28.50;;;;;;5095641;28;20286;-71
2022/08/21 02:33:36;;;;;;;5.60;2.90;;;16.20;28.30;;;;;;5095733;28;20522;-71
2022/08/21 02:36:04;;;;;;;4.93;3.00;;;16.20;28.20;;;;;;5095747;28;20535;-71
2022/08/21 02:38:33;;;;;;;5.03;2.20;;;16.20;28.80;;;;;;5095665;28;20179;-71
2022/08/21 02:40:59;;;;;;;3.10;2.23;;;16.20;29.70;;;;;;5095164;28;20639;-71
2022/08/21 02:43:26;;;;;;;4.83;2.40;;;16.10;29.20;;;;;;5094124;28;20202;-71
2022/08/21 02:45:54;;;;;;;6.00;2.80;;;16.20;28.80;;;;;;5095512;28;20265;-71
2022/08/21 02:48:23;;;;;;;3.23;2.13;;;16.20;27.00;;;;;;5095203;28;20205;-71
2022/08/21 02:50:55;;;;;;;7.17;2.50;;;16.20;26.40;;;;;;5095419;28;20212;-71
2022/08/21 02:53:21;;;;;;;6.60;2.70;;;16.20;26.00;;;;;;5095495;28;20288;-71
2022/08/21 02:55:49;;;;;;;5.60;2.83;;;16.20;26.30;;;;;;5094954;28;20173;-71
2022/08/21 02:58:24;;;;;;;7.77;3.03;;;16.20;24.80;;;;;;5095111;28;20168;-71
2022/08/21 03:00:51;;;;;;;8.23;2.90;;;16.20;25.00;;;;;;5094963;28;20175;-71
2022/08/21 03:03:16;;;;;;;10.30;3.17;;;16.20;24.80;;;;;;5095132;28;20160;-71
2022/08/21 03:05:43;;;;;;;9.50;3.47;;;16.20;25.70;;;;;;5095050;28;20500;-71
2022/08/21 03:08:11;;;;;;;7.97;3.30;;;16.10;26.60;;;;;;5093802;28;20436;-71
2022/08/21 03:10:39;;;;;;;4.57;2.70;;;16.10;27.50;;;;;;5094351;28;20682;-71
2022/08/21 03:13:05;;;;;;;5.87;2.60;;;16.10;30.10;;;;;;5095311;28;20180;-71
2022/08/21 03:15:31;;;;;;;7.97;3.20;;;16.10;30.80;;;;;;5094593;28;20286;-71
2022/08/21 03:17:58;;;;;;;5.93;2.70;;;16.10;31.80;;;;;;5094810;28;20203;-70
2022/08/21 03:20:27;;;;;;;8.27;2.77;;;16.00;33.30;;;;;;5093417;28;20197;-71
2022/08/21 03:22:54;;;;;;;7.33;2.70;;;16.00;33.60;;;;;;5094539;28;20183;-71
2022/08/21 03:25:21;;;;;;;5.20;2.77;;;16.00;35.40;;;;;;5094359;28;20179;-71
2022/08/21 03:27:50;;;;;;;8.57;2.83;;;16.00;35.10;;;;;;5094303;28;20571;-70
2022/08/21 03:30:17;;;;;;;7.87;3.13;;;16.10;35.70;;;;;;5094431;28;20170;-71
2022/08/21 03:32:43;;;;;;;5.57;2.90;;;16.10;35.40;;;;;;5094728;28;20242;-71
2022/08/21 03:35:09;;;;;;;6.63;3.07;;;16.10;36.40;;;;;;5094348;28;20189;-72
2022/08/21 03:37:35;;;;;;;7.23;2.60;;;16.00;39.70;;;;;;5094562;28;20247;-71
2022/08/21 03:40:02;;;;;;;7.57;2.80;;;16.00;41.00;;;;;;5094281;28;20218;-71
2022/08/21 03:42:28;;;;;;;6.13;2.70;;;15.90;41.10;;;;;;5094010;28;20187;-71
2022/08/21 03:44:53;;;;;;;5.33;2.97;;;15.90;43.20;;;;;;5094318;28;20259;-71
2022/08/21 03:47:19;;;;;;;6.20;3.53;;;15.90;42.00;;;;;;5094370;28;20225;-70
2022/08/21 03:49:45;;;;;;;6.63;3.40;;;15.90;44.00;;;;;;5094491;28;20171;-70
2022/08/21 03:52:10;;;;;;;6.83;2.60;;;15.90;41.70;;;;;;5093906;28;20291;-71
2022/08/21 03:54:36;;;;;;;10.10;2.87;;;15.90;39.80;;;;;;5093807;28;20319;-71
2022/08/21 03:57:02;;;;;;;7.53;3.10;;;15.90;38.90;;;;;;5094108;28;20558;-72
2022/08/21 03:59:27;;;;;;;7.17;2.77;;;15.90;40.70;;;;;;5093919;28;20199;-71
2022/08/21 04:01:54;;;;;;;4.83;2.70;;;15.90;41.70;;;;;;5093825;28;20176;-71
2022/08/21 04:04:20;;;;;;;7.30;3.10;;;15.90;39.20;;;;;;5093984;28;20254;-71
2022/08/21 04:06:45;;;;;;;6.47;2.73;;;16.00;40.60;;;;;;5093487;28;20305;-70
2022/08/21 04:09:11;;;;;;;5.83;3.13;;;15.90;37.80;;;;;;5093561;28;20227;-71
2022/08/21 04:11:37;;;;;;;8.50;3.10;;;15.90;40.60;;;;;;5093474;28;20215;-71
2022/08/21 04:14:04;;;;;;;7.53;3.80;;;15.90;39.60;;;;;;5093647;28;20203;-71
2022/08/21 04:16:30;;;;;;;8.13;2.93;;;15.80;41.20;;;;;;5091983;28;20199;-70
2022/08/21 04:18:56;;;;;;;6.70;3.03;;;15.80;44.70;;;;;;5093772;28;20174;-71
2022/08/21 04:21:23;;;;;;;10.40;3.20;;;15.80;45.40;;;;;;5093233;28;20238;-70
2022/08/21 04:23:49;;;;;;;8.50;3.00;;;15.80;43.30;;;;;;5093289;28;20188;-71
2022/08/21 04:26:15;;;;;;;5.93;3.17;;;15.80;43.30;;;;;;5092214;28;20696;-71
2022/08/21 04:28:41;;;;;;;8.80;3.33;;;15.80;40.80;;;;;;5092666;28;20251;-71
2022/08/21 04:31:08;;;;;;;5.67;2.70;;;15.90;39.10;;;;;;5092153;28;20214;-71
2022/08/21 04:33:34;;;;;;;6.10;3.03;;;15.80;42.20;;;;;;5093376;28;20619;-71
2022/08/21 04:36:00;;;;;;;3.93;2.77;;;15.80;43.00;;;;;;5092933;28;20266;-70
2022/08/21 04:38:26;;;;;;;8.00;3.03;;;15.80;44.60;;;;;;5093376;28;20572;-71
2022/08/21 04:40:52;;;;;;;4.77;3.13;;;15.70;47.20;;;;;;5092907;28;20156;-71
2022/08/21 04:43:19;;;;;;;7.10;2.93;;;15.70;49.00;;;;;;5093177;28;20168;-71
2022/08/21 04:45:47;;;;;;;3.77;2.67;;;15.70;49.90;;;;;;5092945;28;20187;-70
2022/08/21 04:48:15;;;;;;;8.57;3.23;;;15.70;50.50;;;;;;5091750;28;20635;-71
2022/08/21 04:51:13;;;;;;;6.30;2.90;;;15.70;51.60;;;;;;5092346;28;20210;-70
2022/08/21 04:53:53;;;;;;;5.27;2.80;;;15.80;50.10;;;;;;5014614;28;20189;-71
2022/08/21 04:56:20;;;;;;;8.40;2.83;;;15.80;48.80;;;;;;5030672;28;20225;-71
2022/08/21 04:58:49;;;;;;;9.83;2.97;;;15.90;46.90;;;;;;5030629;28;20253;-71
2022/08/21 05:01:19;;;;;;;7.90;2.73;;;15.90;45.80;;;;;;5014035;28;20601;-70
2022/08/21 05:03:47;;;;;;;6.63;2.87;;;16.10;47.30;;;;;;5030877;28;20186;-70
2022/08/21 05:06:14;;;;;;;5.77;2.57;;;16.80;35.70;;;;;;5030738;28;20174;-71
2022/08/21 05:08:42;;;;;;;6.87;2.77;;;17.60;1.00;;;;;;5030825;28;20225;-71
2022/08/21 05:11:07;;;;;;;5.57;2.43;;;18.20;1.00;;;;;;5030822;28;20259;-70
2022/08/21 05:13:33;;;;;;;5.73;2.60;;;18.90;1.00;;;;;;5030695;28;20170;-70
2022/08/21 05:15:59;;;;;;;5.70;2.90;;;19.60;1.00;;;;;;5030656;28;20260;-70
2022/08/21 05:18:25;;;;;;;4.43;2.40;;;20.30;1.00;;;;;;5030548;28;20215;-70
2022/08/21 05:20:50;;;;;;;5.00;2.53;;;20.50;99.90;;;;;;5030226;28;20178;-71
2022/08/21 05:23:16;;;;;;;4.43;2.45;;;21.10;1.00;;;;;;5030699;28;20539;-70
2022/08/21 05:25:43;;;;;;;3.95;2.50;;;21.10;1.00;;;;;;5030733;28;20661;-71
2022/08/21 05:28:08;;;;;;;4.72;2.65;;;21.70;1.00;;;;;;5030775;28;20173;-71
2022/08/21 05:30:34;;;;;;;4.90;2.35;;;22.30;1.00;;;;;;5077512;28;20204;-71
2022/08/21 05:33:02;;;;;;;5.00;2.58;;;22.40;1.00;;;;;;5095560;28;20192;-71
2022/08/21 05:35:29;;;;;;;3.05;2.47;;;22.60;99.90;;;;;;5096348;28;20179;-72
2022/08/21 05:37:55;;;;;;;8.02;2.85;;;23.40;99.90;;;;;;5096666;28;20251;-71
2022/08/21 05:40:22;;;;;;;3.90;2.35;;;23.60;7.00;;;;;;5096704;28;20195;-71
2022/08/21 05:42:47;;;;;;;4.60;2.60;;;24.20;1.00;;;;;;5096574;28;20172;-71
2022/08/21 05:45:13;;;;;;;5.88;2.30;;;23.60;1.00;;;;;;5095851;28;20160;-71
2022/08/21 05:47:39;;;;;;;5.10;2.40;;;23.40;1.00;;;;;;5096540;28;20172;-71
2022/08/21 05:50:05;;;;;;;7.50;2.78;;;23.00;1.00;;;;;;5095801;28;20191;-72
2022/08/21 05:52:31;;;;;;;7.72;2.70;;;23.20;99.90;;;;;;5096309;28;20210;-72
2022/08/21 05:54:56;;;;;;;4.43;2.50;;;23.60;99.90;;;;;;5096110;28;20172;-73
2022/08/21 05:57:23;;;;;;;3.58;2.30;;;23.60;99.90;;;;;;5096213;28;20525;-73
2022/08/21 05:59:49;;;;;;;5.82;2.58;;;24.00;1.00;;;;;;5094519;28;20182;-74
2022/08/21 06:02:17;;;;;;;4.70;2.55;;;24.60;99.90;;;;;;5096241;28;20168;-72
2022/08/21 06:04:43;;;;;;;4.70;2.20;;;25.50;1.00;;;;;;5095748;28;20168;-74
2022/08/21 06:07:09;;;;;;;7.18;2.70;;;25.10;1.00;;;;;;5095810;28;20201;-72
2022/08/21 06:09:34;;;;;;;6.32;2.47;;;24.10;99.90;;;;;;5095983;28;20183;-72
2022/08/21 06:12:18;;;;;;;5.68;2.50;;;23.00;99.90;;;;;;5095411;28;20278;-73
2022/08/21 06:14:44;;;;;;;3.47;2.40;;;23.20;1.00;;;;;;5096141;28;20170;-74
2022/08/21 06:17:12;;;;;;;3.17;2.22;;;23.80;99.90;;;;;;5095383;28;20172;-74
2022/08/21 06:19:38;;;;;;;5.18;2.67;;;25.30;79.40;;;;;;5094155;28;20623;-75
2022/08/21 06:22:04;;;;;;;6.63;2.45;;;26.10;1.00;;;;;;5095416;28;20198;-75
2022/08/21 06:24:29;;;;;;;5.00;2.60;;;26.90;99.90;;;;;;5095691;28;20557;-75
2022/08/21 06:26:56;;;;;;;5.57;2.53;;;28.30;99.90;;;;;;5095532;28;20243;-75
2022/08/21 06:29:22;;;;;;;4.65;2.50;;;28.80;99.90;;;;;;5095781;28;20186;-74
2022/08/21 06:31:49;;;;;;;3.67;2.30;;;29.40;99.90;;;;;;5095245;28;20254;-75
2022/08/21 06:34:15;;;;;;;4.70;2.25;;;30.20;99.90;;;;;;5095581;28;20168;-75
2022/08/21 06:36:41;;;;;;;5.43;3.75;;;31.00;99.90;;;;;;5095507;28;20179;-75
2022/08/21 06:39:07;;;;;;;5.68;4.25;;;31.30;99.90;;;;;;5094741;28;20168;-75
2022/08/21 06:41:33;;;;;;;4.35;2.38;;;31.50;99.90;;;;;;5095038;28;20180;-76
2022/08/21 06:43:58;;;;;;;5.03;2.30;;;31.70;99.90;;;;;;5093676;28;20179;-76
2022/08/21 06:46:31;;;;;;;4.80;2.65;;;31.40;99.90;;;;;;5094727;28;20168;-76
2022/08/21 06:48:57;;;;;;;6.00;4.68;;;32.60;99.90;;;;;;5095297;28;20164;-76
2022/08/21 06:51:25;;;;;;;5.55;2.35;;;33.00;97.80;;;;;;5094977;28;20306;-75
2022/08/21 06:53:51;;;;;;;3.55;2.85;;;32.90;95.30;;;;;;5094792;28;20167;-75
2022/08/21 06:56:17;;;;;;;4.60;2.60;;;33.40;95.80;;;;;;5094492;28;20262;-76
2022/08/21 06:58:42;;;;;;;6.25;1.98;;;33.50;86.00;;;;;;5093336;28;20341;-76
2022/08/21 07:01:08;;;;;;;3.85;2.30;;;33.70;72.80;;;;;;5094648;28;20634;-75
2022/08/21 07:03:38;;;;;;;3.72;2.50;;;33.60;69.90;;;;;;5094922;28;20179;-76
2022/08/21 07:06:05;;;;;;;5.13;2.10;;;34.10;68.50;;;;;;5093558;28;20229;-75
2022/08/21 07:08:31;;;;;;;3.25;2.13;;;35.20;55.00;;;;;;5094324;28;20243;-74
2022/08/21 07:11:01;;;;;;;5.22;2.38;;;35.30;42.50;;;;;;5092985;28;20246;-74
2022/08/21 07:13:27;;;;;;;3.67;2.42;;;35.30;41.10;;;;;;5094654;28;20192;-74
2022/08/21 07:15:52;;;;;;;4.78;1.92;;;34.40;37.10;;;;;;5094291;28;20193;-75
2022/08/21 07:18:18;;;;;;;3.80;2.25;;;34.70;38.40;;;;;;5094458;28;20160;-75
2022/08/21 07:20:44;;;;;;;5.00;2.30;;;35.20;35.20;;;;;;5094228;28;20239;-75
2022/08/21 07:23:22;;;;;;;2.35;1.77;;;35.90;27.80;;;;;;5094392;28;20200;-75
2022/08/21 07:25:48;;;;;;;4.45;2.28;;;36.70;26.40;;;;;;5093011;28;20514;-75
2022/08/21 07:28:13;;;;;;;3.75;2.03;;;36.70;17.40;;;;;;5093976;28;20168;-76
2022/08/21 07:30:39;;;;;;;6.70;2.25;;;37.00;12.30;;;;;;5093749;28;20203;-74
2022/08/21 07:33:04;;;;;;;4.10;2.20;;;35.00;13.70;;;;;;5094589;28;20552;-75
2022/08/21 07:35:32;;;;;;;5.35;2.20;;;34.80;17.60;;;;;;5094352;28;20239;-75
2022/08/21 07:37:58;;;;;;;5.88;1.98;;;34.60;19.70;;;;;;5094076;28;20599;-74
2022/08/21 07:40:24;;;;;;;5.20;2.40;;;34.60;22.40;;;;;;5094113;28;20199;-74
2022/08/21 07:42:51;;;;;;;2.83;1.90;;;35.60;19.90;;;;;;5094507;28;20171;-75
2022/08/21 07:45:18;;;;;;;5.30;2.30;;;35.80;19.20;;;;;;5093334;28;20247;-74
2022/08/21 07:47:44;;;;;;;3.75;2.13;;;35.90;16.60;;;;;;5094339;28;20212;-75
2022/08/21 07:50:12;;;;;;;3.95;2.00;;;36.30;12.10;;;;;;5093571;28;20266;-75
2022/08/21 07:52:39;;;;;;;5.45;2.10;;;36.60;12.30;;;;;;5093516;28;20235;-74
2022/08/21 07:55:05;;;;;;;3.55;2.00;;;35.60;12.20;;;;;;5093245;28;20183;-75
2022/08/21 07:57:30;;;;;;;3.17;1.88;;;33.70;18.30;;;;;;5093675;28;20184;-75
2022/08/21 07:59:56;;;;;;;2.67;1.73;;;33.00;27.60;;;;;;5092787;28;20536;-75
2022/08/21 08:02:28;;;;;;;4.95;2.20;;;32.20;37.20;;;;;;5093902;28;20182;-75
2022/08/21 08:04:54;;;;;;;4.15;1.88;;;32.70;46.90;;;;;;5093465;28;20175;-74
2022/08/21 08:07:19;;;;;;;6.32;2.35;;;32.60;45.40;;;;;;5092941;28;20282;-75
2022/08/21 08:09:46;;;;;;;5.25;2.13;;;31.80;52.10;;;;;;5093247;28;20495;-74
2022/08/21 08:12:11;;;;;;;4.93;2.08;;;31.20;86.10;;;;;;5093719;28;20203;-75
2022/08/21 08:14:37;;;;;;;4.63;1.85;;;29.90;99.90;;;;;;5091432;28;20172;-75
2022/08/21 08:17:03;;;;;;;5.00;2.20;;;29.70;99.90;;;;;;5093098;28;20172;-74
2022/08/21 08:19:29;;;;;;;4.32;1.95;;;29.70;99.90;;;;;;5093352;28;20168;-74
2022/08/21 08:21:55;;;;;;;6.07;1.95;;;29.30;99.90;;;;;;5093479;28;20557;-74
2022/08/21 08:24:20;;;;;;;4.35;1.70;;;29.90;99.90;;;;;;5092834;28;20643;-74
2022/08/21 08:26:47;;;;;;;5.72;1.90;;;29.80;99.90;;;;;;5091752;28;20175;-74
2022/08/21 08:29:12;;;;;;;3.85;1.77;;;29.80;99.90;;;;;;5092958;28;20247;-74
2022/08/21 08:31:38;;;;;;;5.82;1.83;;;29.30;99.90;;;;;;5093379;28;20295;-73
2022/08/21 08:34:04;;;;;;;6.03;2.00;;;30.20;99.90;;;;;;5093281;28;20252;-74
2022/08/21 08:36:35;;;;;;;5.32;2.08;;;31.00;99.90;;;;;;5093192;28;20171;-74
2022/08/21 08:39:04;;;;;;;4.80;2.28;;;31.50;99.90;;;;;;5092720;28;20164;-73
2022/08/21 08:41:30;;;;;;;3.47;2.00;;;31.40;99.90;;;;;;5092903;28;20171;-73
2022/08/21 08:44:04;;;;;;;3.80;1.90;;;31.30;99.90;;;;;;5093099;28;20206;-73
2022/08/21 08:46:40;;;;;;;4.55;1.70;;;31.50;99.90;;;;;;5092446;28;20168;-73
2022/08/21 08:49:17;;;;;;;4.80;1.77;;;32.20;99.60;;;;;;5092749;28;20237;-73
2022/08/21 08:51:48;;;;;;;4.75;1.88;;;32.60;90.20;;;;;;5092360;28;20240;-72
2022/08/21 08:54:45;;;;;;;4.15;2.13;;;32.70;85.50;;;;;;5092956;28;20207;-73
2022/08/21 08:57:22;;;;;;;4.47;1.90;;;32.60;77.80;;;;;;5065323;28;20184;-73
2022/08/21 08:59:51;;;;;;;4.93;1.92;;;32.90;62.90;;;;;;5093443;28;20237;-73
2022/08/21 09:02:18;;;;;;;3.83;1.95;;;32.70;87.20;;;;;;5092338;28;20232;-73
2022/08/21 09:04:47;;;;;;;5.60;1.90;;;32.80;60.50;;;;;;5093187;28;20210;-73
2022/08/21 09:07:44;;;;;;;4.47;1.90;;;32.60;66.40;;;;;;5093900;28;20226;-73
2022/08/21 09:10:16;;;;;;;4.82;1.85;;;33.10;64.00;;;;;;5071207;28;20215;-74
2022/08/21 09:13:23;;;;;;;4.05;1.83;;;32.90;59.80;;;;;;5096640;28;20330;-74
2022/08/21 09:16:08;;;;;;;7.70;2.30;;;33.60;52.70;;;;;;5034262;28;20166;-74
2022/08/21 09:18:56;;;;;;;3.42;1.73;;;34.00;42.60;;;;;;5034490;28;20177;-75
2022/08/21 09:21:40;;;;;;;4.18;2.20;;;34.00;40.60;;;;;;5081769;28;20179;-75
2022/08/21 09:24:10;;;;;;;3.45;1.95;;;34.20;35.70;;;;;;5096380;28;20651;-73
2022/08/21 09:26:52;;;;;;;2.85;1.80;;;34.20;35.80;;;;;;5096203;28;20598;-73
2022/08/21 09:29:21;;;;;;;6.50;2.38;;;33.90;30.10;;;;;;5096644;28;20168;-75
2022/08/21 09:31:48;;;;;;;4.72;2.00;;;33.10;36.30;;;;;;5096366;28;20206;-74
2022/08/21 09:34:26;;;;;;;4.35;1.92;;;32.80;45.60;;;;;;5096490;28;20164;-76
2022/08/21 09:36:52;;;;;;;4.53;1.90;;;32.30;46.30;;;;;;5096733;28;20179;-75
2022/08/21 09:39:25;;;;;;;5.38;2.28;;;32.40;45.70;;;;;;5096572;28;20164;-75
2022/08/21 09:42:04;;;;;;;4.45;2.00;;;32.10;45.30;;;;;;5094567;28;20203;-76
2022/08/21 09:44:39;;;;;;;5.10;2.22;;;32.70;52.90;;;;;;5096519;28;20163;-75
2022/08/21 09:47:06;;;;;;;6.18;1.83;;;32.10;43.30;;;;;;5095766;28;20160;-78
2022/08/21 09:49:34;;;;;;;3.45;1.70;;;30.90;64.20;;;;;;5095995;28;20175;-77
2022/08/21 09:52:03;;;;;;;5.35;2.20;;;30.30;92.50;;;;;;5096019;28;20284;-77
2022/08/21 09:54:36;;;;;;;4.65;1.80;;;30.10;99.90;;;;;;5095764;28;20176;-76
2022/08/21 10:00:26;;;;;;;4.43;2.10;;;28.70;99.90;;;;;;5095895;28;20183;-74
2022/08/21 10:02:52;;;;;;;4.22;1.90;;;28.20;99.90;;;;;;5095865;28;20164;-75
2022/08/21 10:05:23;;;;;;;4.68;2.15;;;27.90;99.90;;;;;;5095439;28;20631;-76
2022/08/21 10:07:50;;;;;;;5.15;1.83;;;28.20;99.90;;;;;;5095535;28;20211;-74
2022/08/21 10:10:19;;;;;;;5.38;1.98;;;28.20;99.90;;;;;;5095574;28;20164;-73
2022/08/21 10:13:09;;;;;;;4.32;2.17;;;27.80;99.90;;;;;;5095612;28;20204;-74
2022/08/21 10:15:53;;;;;;;4.25;1.85;;;28.10;99.90;;;;;;5095825;28;20241;-73
2022/08/21 10:18:29;;;;;;;7.03;2.17;;;28.50;99.90;;;;;;5095602;28;20176;-75
2022/08/21 10:21:16;;;;;;;4.68;1.75;;;29.60;99.90;;;;;;5094913;28;20168;-74
2022/08/21 10:24:03;;;;;;;4.05;2.13;;;29.40;99.90;;;;;;5095647;28;20244;-74
2022/08/21 10:26:45;;;;;;;5.60;1.70;;;31.10;99.90;;;;;;5095164;28;20198;-75
2022/08/21 10:29:25;;;;;;;5.50;2.47;;;32.00;99.90;;;;;;5095341;28;20168;-75
2022/08/21 10:32:24;;;;;;;6.35;2.42;;;31.30;96.00;;;;;;5094273;28;20574;-75
2022/08/21 10:35:20;;;;;;;3.80;2.30;;;30.80;99.90;;;;;;5095279;28;20179;-76
2022/08/21 10:38:01;;;;;;;4.28;2.42;;;30.30;99.90;;;;;;5094465;28;20247;-74
2022/08/21 10:40:29;;;;;;;5.68;2.25;;;29.60;99.90;;;;;;5094841;28;20164;-74
2022/08/21 10:43:45;;;;;;;6.97;2.50;;;29.70;99.90;;;;;;5094028;28;20176;-74
2022/08/21 10:46:25;;;;;;;5.80;2.55;;;29.90;99.90;;;;;;5032714;28;20699;-75
2022/08/21 10:48:57;;;;;;;6.05;2.83;;;30.80;99.90;;;;;;5032938;28;20297;-74
2022/08/21 10:51:32;;;;;;;4.78;2.40;;;31.90;98.90;;;;;;5075521;28;20211;-75
2022/08/21 10:54:24;;;;;;;6.10;2.72;;;31.70;92.50;;;;;;5094718;28;20190;-75
2022/08/21 10:56:57;;;;;;;6.85;2.40;;;30.50;99.90;;;;;;5095151;28;20213;-75
2022/08/21 10:59:44;;;;;;;6.85;2.35;;;30.00;99.90;;;;;;5094320;28;20250;-74
2022/08/21 11:02:26;;;;;;;4.60;1.92;;;29.40;99.90;;;;;;5094565;28;20176;-74
2022/08/21 11:04:58;;;;;;;7.35;2.30;;;28.90;99.90;;;;;;5095047;28;20168;-73
2022/08/21 11:07:37;;;;;;;5.95;1.85;;;28.60;99.90;;;;;;5094166;28;20210;-73
2022/08/21 11:10:21;;;;;;;6.88;2.33;;;28.60;99.90;;;;;;5094560;28;20164;-73
2022/08/21 11:12:53;;;;;;;7.30;2.03;;;28.00;99.90;;;;;;5094311;28;20207;-73
2022/08/21 11:15:38;;;;;;;5.28;2.25;;;28.60;99.90;;;;;;5094964;28;20172;-73
2022/08/21 11:18:28;;;;;;;5.78;2.13;;;28.60;99.90;;;;;;5094417;28;20182;-73
2022/08/21 11:21:22;;;;;;;6.13;2.35;;;28.90;99.90;;;;;;5094139;28;20769;-73
2022/08/21 11:24:03;;;;;;;8.02;2.58;;;29.50;99.90;;;;;;5070264;28;20214;-74
2022/08/21 11:27:15;;;;;;;5.45;2.28;;;29.40;99.90;;;;;;5094613;28;20216;-74
2022/08/21 11:29:43;;;;;;;5.50;2.35;;;29.10;99.90;;;;;;5030723;28;20174;-73
2022/08/21 11:32:38;;;;;;;6.43;2.60;;;29.00;99.90;;;;;;5031990;28;20260;-74
2022/08/21 11:35:22;;;;;;;5.40;2.00;;;29.50;99.90;;;;;;5031888;28;20284;-74
2022/08/21 11:38:27;;;;;;;7.68;2.42;;;29.40;99.90;;;;;;5031457;28;20174;-75
2022/08/21 11:41:03;;;;;;;4.88;1.92;;;28.00;99.90;;;;;;5031751;28;20204;-75
2022/08/21 11:43:43;;;;;;;5.80;2.38;;;28.10;99.90;;;;;;5032016;28;20178;-74
2022/08/21 11:46:29;;;;;;;5.63;2.25;;;28.40;99.90;;;;;;5031540;28;20723;-74
2022/08/21 11:49:19;;;;;;;6.30;2.20;;;28.40;99.90;;;;;;5031066;28;20177;-73
2022/08/21 11:51:59;;;;;;;9.20;2.60;;;28.80;99.90;;;;;;5030966;28;20280;-73
2022/08/21 11:55:01;;;;;;;6.32;2.40;;;28.40;99.90;;;;;;5031615;28;20311;-73
2022/08/21 11:57:52;;;;;;;5.20;2.10;;;28.80;99.90;;;;;;4972881;28;20585;-73
2022/08/21 12:00:29;;;;;;;4.80;2.60;;;28.90;99.90;;;;;;5007115;28;20173;-76
2022/08/21 12:03:11;;;;;;;6.35;2.38;;;29.40;99.90;;;;;;5051454;28;20629;-73
2022/08/21 12:05:42;;;;;;;9.90;2.40;;;30.10;99.90;;;;;;5051191;28;20648;-74
2022/08/21 12:08:26;;;;;;;7.32;2.20;;;30.30;99.90;;;;;;5050553;28;20290;-75
2022/08/21 12:11:10;;;;;;;6.88;2.60;;;30.10;99.90;;;;;;5050947;28;20770;-74
2022/08/21 12:13:53;;;;;;;3.30;1.92;;;30.00;99.90;;;;;;5050916;28;20188;-74
2022/08/21 12:16:49;;;;;;;5.63;2.30;;;29.20;99.90;;;;;;5051428;28;20204;-74
2022/08/21 12:19:20;;;;;;;8.48;2.22;;;29.10;99.90;;;;;;4991277;28;20187;-74
2022/08/21 12:22:11;;;;;;;8.85;2.22;;;28.30;99.90;;;;;;4991084;28;20625;-72
2022/08/21 12:24:40;;;;;;;3.58;2.13;;;27.60;99.90;;;;;;4991862;28;20175;-73
2022/08/21 12:27:21;;;;;;;6.25;2.13;;;27.60;99.90;;;;;;4991443;28;20222;-73
2022/08/21 12:29:56;;;;;;;5.45;2.40;;;27.50;99.90;;;;;;4992028;28;20176;-74
2022/08/21 12:32:41;;;;;;;4.07;2.17;;;27.70;99.90;;;;;;4991249;28;20747;-73
2022/08/21 12:35:18;;;;;;;5.20;2.20;;;28.00;99.90;;;;;;5050767;28;20180;-73
2022/08/21 12:37:59;;;;;;;6.72;2.00;;;28.00;99.90;;;;;;5050271;28;20220;-73
2022/08/21 12:40:45;;;;;;;4.93;2.13;;;28.20;99.90;;;;;;5050130;28;20173;-74
2022/08/21 12:43:19;;;;;;;4.00;2.03;;;28.20;99.90;;;;;;5050602;28;20177;-74
2022/08/21 12:45:48;;;;;;;6.40;2.10;;;28.10;99.90;;;;;;5050317;28;20206;-73
2022/08/21 12:48:40;;;;;;;5.18;1.80;;;27.90;99.90;;;;;;5050551;28;20165;-73
2022/08/21 12:51:14;;;;;;;4.28;2.17;;;27.70;99.90;;;;;;5049518;28;20197;-74
2022/08/21 12:53:51;;;;;;;4.82;2.15;;;27.30;99.90;;;;;;5049770;28;20222;-72
2022/08/21 12:56:22;;;;;;;6.60;2.20;;;26.90;99.90;;;;;;5083529;28;20302;-73
2022/08/21 12:58:53;;;;;;;4.43;2.53;;;26.10;99.90;;;;;;5092428;28;20527;-73
2022/08/21 13:01:23;;;;;;;5.20;1.98;;;26.00;99.90;;;;;;5093042;28;20171;-73
2022/08/21 13:03:50;;;;;;;9.45;2.30;;;26.00;1.00;;;;;;5091224;28;20172;-72
2022/08/21 13:06:18;;;;;;;5.97;2.15;;;26.00;1.00;;;;;;5093054;28;20179;-72
2022/08/21 13:08:46;;;;;;;6.30;2.45;;;26.20;99.90;;;;;;5092014;28;20222;-73
2022/08/21 13:11:17;;;;;;;4.93;2.30;;;26.70;99.90;;;;;;5092498;28;20223;-73